CheckWX is a tool to help pilots better visualize weather data.  It is not intended as a substitute for an official pre-flight weather briefing.

23:28:46 UTC

6R6 METAR
Terrell County Airport
Dryden, Texas, USA
Current

36 mins ago

K6R6 222253Z AUTO 08005KT 19/04 A3000 RMK AO1 SLP138 T01940044
Observed
Nov-22 @ 22:53 UTC
Wind
  • 080° at 5 KTS
Visibility
Temperature
19°C / 66°F
Dewpoint
C / 39°F
Humidity
37%
Altimeter
30" Hg
Pressure
1015.92 hPa
Previous

2 hours ago

K6R6 222153Z AUTO 07003KT 20/04 A3000 RMK AO1 SLP137 T02000044
Observed
Nov-22 @ 21:53 UTC
Wind
  • 070° at 3 KTS
Visibility
Temperature
20°C / 68°F
Dewpoint
C / 39°F
Humidity
35%
Altimeter
30" Hg
Pressure
1015.92 hPa
Previous

3 hours ago

K6R6 222053Z AUTO 08007KT 21/04 A3001 RMK AO1 SLP140 T02110044 56028
Observed
Nov-22 @ 20:53 UTC
Wind
  • 080° at 7 KTS
Visibility
Temperature
21°C / 70°F
Dewpoint
C / 39°F
Humidity
33%
Altimeter
30.01" Hg
Pressure
1016.22 hPa